KAIZ/AIZ METAR and TAF weather

Enter ICAO airport designator
Station Type Date Time Source
KAIZ METAR 2021/02/27 08:56 UTC NOAA

KAIZ 270856Z AUTO 27005KT 10SM OVC013 07/04 A2998 RMK AO2 SLP151 T00670044 51014


Station Type Date Time Source
KAIZ Decoded METAR 2021/02/27 08:56 UTC NOAA

Kaiser Lake Ozark, Lee C Fine Memorial Airport, MO, United States (KAIZ) 38-06N 092-33W
Feb 27, 2021 - 03:56 AM EST / 2021.02.27 0856 UTC
Wind: from the W (270 degrees) at 6 MPH (5 KT):0
Visibility: 10 mile(s):0
Sky conditions: overcast
Temperature: 44.1 F (6.7 C)
Dew Point: 39.9 F (4.4 C)
Relative Humidity: 85%
Pressure (altimeter): 29.98 in. Hg (1015 hPa)
Pressure tendency: 0.04 inches (1.4 hPa) higher than three hours ago
ob: KAIZ 270856Z AUTO 27005KT 10SM OVC013 07/04 A2998 RMK AO2 SLP151 T00670044 51014
cycle: 9

Station Type Date Time Source
KAIZ TAF UTC NOAA

Error!

Example: see airport list